This is the latest recevied weather packets stored in our database for station/object SQ2CET-13. If no packets are shown the sender has not sent any weather packets the latest 10 day(s).
| Time | Temp. | Humidity | Pressure | Rain* | Wind** | Luminosity | Snow |
|---|---|---|---|---|---|---|---|
| 1777190457 | 5.56° C | 60% | 1020.2 hPa | 0 mm | - | 558 W/m² | - |
| 1777188023 | 5° C | 70% | 1019.4 hPa | 0 mm | - | 278 W/m² | - |
| 1777180300 | 5° C | 83% | 1017.4 hPa | 0 mm | - | 128 W/m² | - |
| 1777174881 | 2.22° C | 90% | 1015.1 hPa | 0.25 mm | - | 4 W/m² | - |
| 1777170656 | 3.33° C | 90% | 1014.1 hPa | 0 mm | - | 0 W/m² | - |
| 1777170081 | 3.33° C | 90% | 1013.9 hPa | 0 mm | - | 0 W/m² | - |
| 1777167649 | 3.33° C | 90% | 1013.2 hPa | 0 mm | - | 0 W/m² | - |
| 1777165282 | 3.33° C | 90% | 1012.3 hPa | 0 mm | - | 0 W/m² | - |
| 1777162848 | 3.89° C | 92% | 1011.5 hPa | 0 mm | - | 0 W/m² | - |
| 1777155040 | 2.78° C | 93% | 1008.6 hPa | 1.27 mm | - | 0 W/m² | - |
| 1777153826 | 2.78° C | 94% | 1008 hPa | 1.27 mm | - | 0 W/m² | - |
| 1777149664 | 5.56° C | 91% | 1005.5 hPa | 1.02 mm | - | 0 W/m² | - |
| 1777147875 | 6.11° C | 90% | 1005.1 hPa | 1.02 mm | - | 0 W/m² | - |
| 1777147232 | 6.11° C | 90% | 1004.8 hPa | 1.02 mm | - | 0 W/m² | - |
| 1777143649 | 8.33° C | 77% | 1005.1 hPa | 0 mm | - | 0 W/m² | - |
| 1777141856 | 8.33° C | 77% | 1005.2 hPa | 0 mm | - | 0 W/m² | - |
| 1777137057 | 8.33° C | 75% | 1005.8 hPa | 0 mm | - | 4 W/m² | - |
| 1777136480 | 8.33° C | 75% | 1005.9 hPa | 0 mm | - | 6 W/m² | - |
| 1777134047 | 8.89° C | 73% | 1006.5 hPa | 0 mm | - | 23 W/m² | - |
| 1777131673 | 8.89° C | 71% | 1006.6 hPa | 0 mm | - | 94 W/m² | - |
| 1777129232 | 8.89° C | 71% | 1006.9 hPa | 0 mm | - | 82 W/m² | - |
| 1777128659 | 8.89° C | 71% | 1007 hPa | 0 mm | - | 78 W/m² | - |
| 1777122077 | 10° C | 68% | 1006.8 hPa | 0 mm | - | 141 W/m² | - |
| 1777120840 | 10° C | 68% | 1006.8 hPa | 0 mm | - | 187 W/m² | - |
| 1777117832 | 10° C | 68% | 1006.8 hPa | 0 mm | - | 488 W/m² | - |
* Rain latest hour (hover to see other rain measurements)
** Current wind speed in m/s (hover to see current wind gust speed)